createdAt,value
2023-05-22T00:02:22.823Z,5.47
2023-05-22T00:04:52.571Z,6.00
2023-05-22T00:07:20.702Z,6.28
2023-05-22T00:09:47.954Z,5.75
2023-05-22T00:12:15.227Z,5.65
2023-05-22T00:14:42.517Z,5.60
2023-05-22T00:17:10.274Z,5.82
2023-05-22T00:19:39.871Z,5.30
2023-05-22T00:22:07.144Z,6.45
2023-05-22T00:24:34.377Z,5.18
2023-05-22T00:27:01.669Z,5.85
2023-05-22T00:29:28.944Z,6.10
2023-05-22T00:31:57.491Z,5.90
2023-05-22T00:34:24.837Z,6.30
2023-05-22T00:36:52.193Z,5.88
2023-05-22T00:39:19.499Z,6.10
2023-05-22T00:41:47.185Z,5.82
2023-05-22T00:44:14.725Z,5.47
2023-05-22T00:46:43.263Z,5.68
2023-05-22T00:49:10.714Z,5.95
2023-05-22T00:51:38.180Z,5.60
2023-05-22T00:54:06.221Z,5.60
2023-05-22T00:56:34.098Z,5.80
2023-05-22T00:59:01.445Z,5.95
2023-05-22T01:01:33.667Z,6.13
2023-05-22T01:04:01.839Z,5.90
2023-05-22T01:06:32.367Z,6.47
2023-05-22T01:08:59.706Z,5.78
2023-05-22T01:11:41.451Z,5.50
2023-05-22T01:14:36.519Z,6.10
2023-05-22T01:17:09.238Z,5.50
2023-05-22T01:20:10.189Z,6.18
2023-05-22T01:23:14.998Z,5.95
2023-05-22T01:25:45.316Z,5.05
2023-05-22T01:28:34.933Z,5.78
2023-05-22T01:31:29.950Z,5.90
2023-05-22T01:34:00.620Z,5.40
2023-05-22T01:36:31.445Z,5.88
2023-05-22T01:39:01.509Z,6.15
2023-05-22T01:41:32.750Z,5.53
2023-05-22T01:44:01.380Z,6.20
2023-05-22T01:46:30.483Z,6.22
2023-05-22T01:48:59.069Z,5.78
2023-05-22T01:51:32.453Z,5.68
2023-05-22T01:54:20.119Z,6.10
2023-05-22T01:56:55.715Z,5.65
2023-05-22T02:00:04.154Z,5.18
2023-05-22T02:02:48.737Z,5.55
2023-05-22T02:05:19.779Z,5.57
2023-05-22T02:07:48.370Z,5.90
2023-05-22T02:10:19.655Z,5.75
2023-05-22T02:12:47.211Z,5.90
2023-05-22T02:15:15.346Z,5.80
2023-05-22T02:17:42.949Z,6.28
2023-05-22T02:20:15.786Z,5.40
2023-05-22T02:22:47.057Z,6.05
2023-05-22T02:25:17.024Z,6.18
2023-05-22T02:27:47.632Z,5.80
2023-05-22T02:30:15.226Z,5.88
2023-05-22T02:32:43.987Z,6.00
2023-05-22T02:35:11.639Z,6.38
2023-05-22T02:37:39.135Z,5.70
2023-05-22T02:40:07.730Z,6.20
2023-05-22T02:42:35.411Z,6.15
2023-05-22T02:45:03.263Z,5.78
2023-05-22T02:47:30.760Z,5.28
2023-05-22T02:49:58.351Z,6.13
2023-05-22T02:52:25.724Z,6.07
2023-05-22T02:54:53.039Z,5.90
2023-05-22T02:57:22.020Z,5.93
2023-05-22T02:59:49.415Z,5.93
2023-05-22T03:02:17.673Z,5.75
2023-05-22T03:04:45.317Z,6.18
2023-05-22T03:07:12.654Z,5.78
2023-05-22T03:09:40.114Z,5.72
2023-05-22T03:12:07.984Z,5.88
2023-05-22T03:14:35.534Z,5.90
2023-05-22T03:17:03.724Z,5.93
2023-05-22T03:19:31.203Z,6.05
2023-05-22T03:21:58.551Z,5.80
2023-05-22T03:24:27.049Z,5.45
2023-05-22T03:26:54.678Z,6.20
2023-05-22T03:29:32.155Z,5.53
2023-05-22T03:32:00.013Z,5.80
2023-05-22T03:34:27.751Z,6.13
2023-05-22T03:36:57.871Z,5.97
2023-05-22T03:39:25.570Z,6.22
2023-05-22T03:41:58.908Z,5.97
2023-05-22T03:44:27.342Z,5.70
2023-05-22T03:46:55.649Z,5.88
2023-05-22T03:49:22.976Z,5.90
2023-05-22T03:51:50.625Z,5.78
2023-05-22T03:54:18.313Z,6.40
2023-05-22T03:56:45.753Z,6.43
2023-05-22T03:59:13.121Z,6.50
2023-05-22T04:01:40.729Z,6.25
2023-05-22T04:04:09.619Z,6.40
2023-05-22T04:06:42.959Z,6.45
2023-05-22T04:09:13.798Z,6.50
2023-05-22T04:11:42.423Z,6.53
2023-05-22T04:14:10.176Z,6.15
2023-05-22T04:16:37.667Z,6.00
2023-05-22T04:19:05.783Z,6.38
2023-05-22T04:21:36.005Z,6.38
2023-05-22T04:24:07.150Z,6.70
2023-05-22T04:26:36.033Z,6.10
2023-05-22T04:29:03.882Z,6.35
2023-05-22T04:31:31.210Z,6.38
2023-05-22T04:34:00.288Z,6.60
2023-05-22T04:36:27.980Z,6.22
2023-05-22T04:38:55.595Z,6.50
2023-05-22T04:41:26.525Z,6.32
2023-05-22T04:43:54.509Z,6.40
2023-05-22T04:46:22.479Z,6.63
2023-05-22T04:48:50.968Z,7.15
2023-05-22T04:51:18.522Z,6.07
2023-05-22T04:53:46.361Z,6.72
2023-05-22T04:56:18.605Z,6.55
2023-05-22T04:58:53.876Z,6.22
2023-05-22T05:01:21.969Z,6.50
2023-05-22T05:03:49.474Z,6.78
2023-05-22T05:06:17.341Z,6.43
2023-05-22T05:08:46.624Z,6.70
2023-05-22T05:11:14.296Z,6.55
2023-05-22T05:13:43.001Z,6.60
2023-05-22T05:16:10.352Z,6.70
2023-05-22T05:18:38.149Z,6.82
2023-05-22T05:21:05.618Z,6.60
2023-05-22T05:23:32.959Z,7.05
2023-05-22T05:26:00.721Z,7.82
2023-05-22T05:28:28.760Z,7.55
2023-05-22T05:30:57.624Z,6.38
2023-05-22T05:33:49.077Z,7.10
2023-05-22T05:36:29.237Z,6.47
2023-05-22T05:38:58.603Z,6.95
2023-05-22T05:41:27.238Z,6.57
2023-05-22T05:44:03.004Z,6.85
2023-05-22T05:46:33.087Z,6.10
2023-05-22T05:49:00.748Z,6.60
2023-05-22T05:51:28.603Z,6.60
2023-05-22T05:53:56.035Z,6.25
2023-05-22T05:56:23.395Z,6.10
2023-05-22T05:58:51.923Z,5.70
2023-05-22T06:01:54.201Z,6.07
2023-05-22T06:04:28.163Z,6.05
2023-05-22T06:06:55.737Z,6.07
2023-05-22T06:09:31.059Z,6.05
2023-05-22T06:12:22.265Z,6.32
2023-05-22T06:14:49.596Z,6.10
2023-05-22T06:17:17.093Z,6.25
2023-05-22T06:19:45.596Z,5.53
2023-05-22T06:22:15.307Z,5.97
2023-05-22T06:24:44.977Z,6.47
2023-05-22T06:27:17.454Z,6.03
2023-05-22T06:29:45.072Z,6.82
2023-05-22T06:32:12.992Z,5.85
2023-05-22T06:34:44.497Z,6.20
2023-05-22T06:37:13.438Z,5.97
2023-05-22T06:39:43.629Z,6.18
2023-05-22T06:42:21.741Z,5.90
2023-05-22T06:45:22.608Z,6.07
2023-05-22T06:48:08.823Z,5.75
2023-05-22T06:50:43.700Z,5.82
2023-05-22T06:53:11.504Z,6.13
2023-05-22T06:55:38.883Z,5.53
2023-05-22T06:58:13.838Z,5.63
2023-05-22T07:00:41.603Z,5.68
2023-05-22T07:03:15.211Z,5.28
2023-05-22T07:06:03.813Z,5.18
2023-05-22T07:08:31.487Z,5.13
2023-05-22T07:10:59.190Z,5.55
2023-05-22T07:13:26.719Z,5.25
2023-05-22T07:15:54.314Z,5.47
2023-05-22T07:18:21.678Z,5.32
2023-05-22T07:20:49.140Z,5.20
2023-05-22T07:23:19.811Z,5.15
2023-05-22T07:25:47.528Z,5.10
2023-05-22T07:28:16.601Z,5.40
2023-05-22T07:30:52.441Z,4.82
2023-05-22T07:33:19.776Z,5.22
2023-05-22T07:35:47.273Z,5.07
2023-05-22T07:38:15.035Z,4.90
2023-05-22T07:40:50.498Z,5.25
2023-05-22T07:43:18.516Z,5.60
2023-05-22T07:45:46.151Z,5.30
2023-05-22T07:48:16.244Z,5.30
2023-05-22T07:50:45.514Z,5.68
2023-05-22T07:53:13.010Z,6.30
2023-05-22T07:55:43.168Z,6.43
2023-05-22T07:58:10.878Z,5.57
2023-05-22T08:00:41.815Z,5.30
2023-05-22T08:03:09.383Z,5.70
2023-05-22T08:05:36.690Z,5.93
2023-05-22T08:08:04.765Z,4.95
2023-05-22T08:10:46.455Z,5.28
2023-05-22T08:13:19.574Z,5.05
2023-05-22T08:15:47.002Z,5.15
2023-05-22T08:18:14.643Z,4.90
2023-05-22T08:20:42.232Z,5.28
2023-05-22T08:23:09.756Z,5.55
2023-05-22T08:25:37.249Z,4.95
2023-05-22T08:28:04.755Z,5.00
2023-05-22T08:30:32.150Z,5.32
2023-05-22T08:32:59.503Z,5.80
2023-05-22T08:35:26.923Z,5.47
2023-05-22T08:37:54.184Z,5.60
2023-05-22T08:40:22.553Z,5.75
2023-05-22T08:42:54.283Z,5.88
2023-05-22T08:45:21.779Z,5.68
2023-05-22T08:47:55.126Z,5.50
2023-05-22T08:50:24.432Z,5.63
2023-05-22T08:52:52.646Z,6.00
2023-05-22T08:55:20.113Z,5.53
2023-05-22T08:57:49.164Z,5.78
2023-05-22T09:00:17.688Z,5.32
2023-05-22T09:02:47.047Z,6.15
2023-05-22T09:05:15.902Z,5.28
2023-05-22T09:07:43.761Z,6.18
2023-05-22T09:10:11.516Z,6.43
2023-05-22T09:12:38.825Z,5.60
2023-05-22T09:15:10.606Z,5.45
2023-05-22T09:17:41.451Z,5.40
2023-05-22T09:20:13.245Z,5.80
2023-05-22T09:22:40.594Z,5.30
2023-05-22T09:25:08.608Z,5.40
2023-05-22T09:27:36.328Z,5.55
2023-05-22T09:30:03.871Z,5.05
2023-05-22T09:32:31.465Z,5.60
2023-05-22T09:35:05.505Z,5.50
2023-05-22T09:37:35.511Z,5.53
2023-05-22T09:40:11.724Z,5.13
2023-05-22T09:42:42.149Z,5.28
2023-05-22T09:45:09.818Z,5.93
2023-05-22T09:47:37.261Z,5.20
2023-05-22T09:50:07.146Z,5.50
2023-05-22T09:52:36.015Z,5.05
2023-05-22T09:55:05.601Z,5.43
2023-05-22T09:57:45.452Z,5.32
2023-05-22T10:00:18.455Z,5.63
2023-05-22T10:02:50.893Z,5.75
2023-05-22T10:05:22.042Z,4.88
2023-05-22T10:07:51.990Z,5.47
2023-05-22T10:10:22.875Z,5.78
2023-05-22T10:13:01.580Z,5.53
2023-05-22T10:15:28.958Z,5.50
2023-05-22T10:17:58.099Z,5.57
2023-05-22T10:20:30.093Z,5.60
2023-05-22T10:22:57.492Z,5.40
2023-05-22T10:25:25.997Z,5.10
2023-05-22T10:27:54.584Z,4.93
2023-05-22T10:30:27.749Z,5.40
2023-05-22T10:33:22.220Z,5.03
2023-05-22T10:35:55.801Z,4.97
2023-05-22T10:38:23.240Z,5.30
2023-05-22T10:40:51.634Z,5.50
2023-05-22T10:43:21.279Z,5.50
2023-05-22T10:45:48.807Z,5.90
2023-05-22T10:48:22.186Z,5.75
2023-05-22T10:50:53.002Z,5.47
2023-05-22T10:53:22.326Z,5.70
2023-05-22T10:55:54.365Z,6.00
2023-05-22T10:58:38.240Z,5.85
2023-05-22T11:01:13.149Z,5.60
2023-05-22T11:04:00.960Z,5.60
2023-05-22T11:06:48.982Z,5.90
2023-05-22T11:09:48.663Z,5.78
2023-05-22T11:12:30.932Z,5.95
2023-05-22T11:15:09.389Z,5.55
2023-05-22T11:17:39.836Z,6.05
2023-05-22T11:20:12.953Z,5.70
2023-05-22T11:22:42.806Z,6.22
2023-05-22T11:25:11.682Z,5.50
2023-05-22T11:27:40.918Z,5.78
2023-05-22T11:30:10.097Z,5.95
2023-05-22T11:32:38.883Z,6.00
2023-05-22T11:35:08.536Z,6.20
2023-05-22T11:37:40.024Z,6.07
2023-05-22T11:40:08.727Z,5.60
2023-05-22T11:42:37.198Z,5.57
2023-05-22T11:45:05.807Z,6.13
2023-05-22T11:47:33.590Z,5.47
2023-05-22T11:50:01.959Z,6.05
2023-05-22T11:52:33.803Z,5.70
2023-05-22T11:55:01.417Z,5.70
2023-05-22T11:57:29.036Z,5.93
2023-05-22T11:59:56.444Z,6.13
2023-05-22T12:02:23.906Z,5.97
2023-05-22T12:04:55.832Z,5.82
2023-05-22T12:07:24.434Z,5.47
2023-05-22T12:09:52.130Z,5.43
2023-05-22T12:12:22.448Z,5.47
2023-05-22T12:14:50.494Z,5.15
2023-05-22T12:17:19.294Z,4.85
2023-05-22T12:19:49.066Z,5.68
2023-05-22T12:22:16.695Z,5.82
2023-05-22T12:24:48.396Z,5.65
2023-05-22T12:27:15.711Z,5.22
2023-05-22T12:29:43.312Z,5.72
2023-05-22T12:32:12.724Z,5.75
2023-05-22T12:34:47.626Z,5.18
2023-05-22T12:37:28.363Z,5.68
2023-05-22T12:40:00.569Z,5.43
2023-05-22T12:42:28.822Z,5.10
2023-05-22T12:44:57.380Z,5.80
2023-05-22T12:47:24.947Z,5.22
2023-05-22T12:49:52.812Z,5.13
2023-05-22T12:52:22.869Z,5.70
2023-05-22T12:54:50.848Z,5.47
2023-05-22T12:57:18.157Z,6.20
2023-05-22T12:59:45.485Z,5.70
2023-05-22T13:02:12.786Z,5.57
2023-05-22T13:04:40.101Z,5.50
2023-05-22T13:07:07.372Z,5.82
2023-05-22T13:09:34.925Z,5.30
2023-05-22T13:12:02.664Z,5.40
2023-05-22T13:14:30.086Z,5.68
2023-05-22T13:16:57.377Z,5.32
2023-05-22T13:19:24.691Z,5.57
2023-05-22T13:21:52.144Z,5.68
2023-05-22T13:24:19.478Z,5.13
2023-05-22T13:26:46.746Z,5.43
2023-05-22T13:29:14.232Z,5.00
2023-05-22T13:31:41.594Z,5.32
2023-05-22T13:34:09.427Z,5.45
2023-05-22T13:36:36.715Z,5.32
2023-05-22T13:39:04.131Z,4.90
2023-05-22T13:41:31.418Z,6.18
2023-05-22T13:43:58.750Z,6.20
2023-05-22T13:46:26.228Z,6.38
2023-05-22T13:48:53.551Z,5.95
2023-05-22T13:51:20.958Z,6.75
2023-05-22T13:53:48.261Z,6.63
2023-05-22T13:56:15.626Z,6.60
2023-05-22T13:58:42.891Z,6.10
2023-05-22T14:01:10.496Z,6.68
2023-05-22T14:03:37.976Z,7.00
2023-05-22T14:06:05.687Z,7.32
2023-05-22T14:08:33.029Z,7.15
2023-05-22T14:11:01.047Z,7.57
2023-05-22T14:13:28.776Z,6.22
2023-05-22T14:15:56.390Z,5.85
2023-05-22T14:18:24.071Z,6.65
2023-05-22T14:20:51.469Z,6.53
2023-05-22T14:23:18.822Z,6.00
2023-05-22T14:25:46.581Z,6.30
2023-05-22T14:28:14.193Z,5.88
2023-05-22T14:30:43.838Z,6.97
2023-05-22T14:33:11.369Z,6.07
2023-05-22T14:35:38.982Z,6.38
2023-05-22T14:38:06.643Z,6.28
2023-05-22T14:40:33.923Z,7.22
2023-05-22T14:43:01.219Z,5.90
2023-05-22T14:45:28.502Z,6.10
2023-05-22T14:47:55.975Z,6.15
2023-05-22T14:50:23.389Z,6.15
2023-05-22T14:52:50.781Z,6.50
2023-05-22T14:55:21.771Z,7.10
2023-05-22T14:57:49.311Z,7.57
2023-05-22T15:00:17.059Z,7.57
2023-05-22T15:02:44.414Z,7.65
2023-05-22T15:05:11.942Z,7.68
2023-05-22T15:07:44.769Z,7.45
2023-05-22T15:10:13.519Z,7.53
2023-05-22T15:12:40.877Z,6.47
2023-05-22T15:15:08.716Z,7.10
2023-05-22T15:17:36.320Z,7.28
2023-05-22T15:20:05.444Z,7.20
2023-05-22T15:22:32.754Z,6.43
2023-05-22T15:25:07.954Z,6.72
2023-05-22T15:27:36.046Z,6.07
2023-05-22T15:30:04.838Z,6.38
2023-05-22T15:32:32.963Z,6.85
2023-05-22T15:35:00.839Z,6.45
2023-05-22T15:37:32.357Z,6.43
2023-05-22T15:40:04.380Z,5.63
2023-05-22T15:42:32.014Z,6.97
2023-05-22T15:45:09.966Z,6.10
2023-05-22T15:47:39.059Z,6.18
2023-05-22T15:50:07.002Z,6.47
2023-05-22T15:52:34.470Z,5.35
2023-05-22T15:55:01.773Z,4.88
2023-05-22T15:57:29.396Z,6.55
2023-05-22T15:59:57.021Z,6.90
2023-05-22T16:02:24.917Z,6.45
2023-05-22T16:04:52.586Z,6.40
2023-05-22T16:07:26.372Z,6.43
2023-05-22T16:09:54.234Z,6.63
2023-05-22T16:12:22.068Z,7.10
2023-05-22T16:14:59.462Z,6.78
2023-05-22T16:17:27.919Z,6.18
2023-05-22T16:19:55.298Z,7.25
2023-05-22T16:22:23.517Z,6.45
2023-05-22T16:24:53.662Z,6.78
2023-05-22T16:27:21.491Z,6.75
2023-05-22T16:29:48.796Z,6.82
2023-05-22T16:32:16.075Z,6.70
2023-05-22T16:34:43.360Z,6.75
2023-05-22T16:37:10.631Z,6.68
2023-05-22T16:39:39.828Z,7.28
2023-05-22T16:42:07.547Z,6.40
2023-05-22T16:44:34.789Z,7.60
2023-05-22T16:47:02.084Z,6.60
2023-05-22T16:49:29.472Z,6.97
2023-05-22T16:51:57.591Z,6.65
2023-05-22T16:54:24.853Z,6.63
2023-05-22T16:56:52.209Z,6.70
2023-05-22T16:59:19.628Z,6.72
2023-05-22T17:01:47.424Z,7.60
2023-05-22T17:04:15.843Z,6.53
2023-05-22T17:06:43.396Z,6.93
2023-05-22T17:09:10.765Z,7.35
2023-05-22T17:11:38.073Z,7.15
2023-05-22T17:14:05.916Z,6.90
2023-05-22T17:16:33.482Z,7.00
2023-05-22T17:19:02.403Z,7.30
2023-05-22T17:21:30.689Z,6.75
2023-05-22T17:23:58.105Z,7.53
2023-05-22T17:26:28.035Z,6.90
2023-05-22T17:28:55.836Z,7.80
2023-05-22T17:31:23.211Z,8.10
2023-05-22T17:33:50.837Z,7.82
2023-05-22T17:36:18.107Z,7.35
2023-05-22T17:38:45.468Z,8.73
2023-05-22T17:41:12.839Z,7.88
2023-05-22T17:43:40.164Z,7.95
2023-05-22T17:46:07.573Z,7.13
2023-05-22T17:48:35.192Z,8.00
2023-05-22T17:51:03.363Z,7.38
2023-05-22T17:53:34.352Z,7.05
2023-05-22T17:56:02.499Z,7.00
2023-05-22T17:58:29.828Z,7.25
2023-05-22T18:00:57.229Z,8.07
2023-05-22T18:03:26.844Z,7.40
2023-05-22T18:05:54.360Z,7.78
2023-05-22T18:08:21.737Z,8.02
2023-05-22T18:10:49.448Z,7.75
2023-05-22T18:13:19.154Z,7.35
2023-05-22T18:15:48.217Z,7.60
2023-05-22T18:18:16.640Z,8.20
2023-05-22T18:20:46.035Z,7.20
2023-05-22T18:23:16.122Z,7.75
2023-05-22T18:25:43.512Z,6.63
2023-05-22T18:28:15.280Z,7.50
2023-05-22T18:30:44.800Z,7.80
2023-05-22T18:33:12.272Z,7.35
2023-05-22T18:35:39.516Z,7.88
2023-05-22T18:38:07.888Z,8.45
2023-05-22T18:40:35.301Z,8.35
2023-05-22T18:43:02.958Z,8.63
2023-05-22T18:45:30.391Z,9.52
2023-05-22T18:47:57.685Z,9.10
2023-05-22T18:50:26.323Z,9.57
2023-05-22T18:52:53.573Z,8.63
2023-05-22T18:55:22.034Z,9.00
2023-05-22T18:57:49.295Z,8.57
2023-05-22T19:00:16.762Z,8.00
2023-05-22T19:02:44.191Z,8.48
2023-05-22T19:05:11.694Z,8.77
2023-05-22T19:07:39.022Z,8.50
2023-05-22T19:10:08.217Z,8.45
2023-05-22T19:12:35.757Z,9.05
2023-05-22T19:15:03.224Z,9.25
2023-05-22T19:17:30.662Z,9.32
2023-05-22T19:19:58.169Z,9.05
2023-05-22T19:22:25.529Z,8.95
2023-05-22T19:24:52.793Z,8.93
2023-05-22T19:27:20.104Z,8.98
2023-05-22T19:29:47.366Z,8.75
2023-05-22T19:32:14.711Z,9.43
2023-05-22T19:34:42.200Z,9.20
2023-05-22T19:37:09.560Z,8.77
2023-05-22T19:39:36.957Z,10.10
2023-05-22T19:42:05.311Z,9.40
2023-05-22T19:44:32.580Z,9.15
2023-05-22T19:47:00.413Z,8.68
2023-05-22T19:49:27.955Z,9.80
2023-05-22T19:51:56.227Z,8.95
2023-05-22T19:54:23.596Z,8.75
2023-05-22T19:56:51.061Z,8.90
2023-05-22T19:59:18.291Z,9.05
2023-05-22T20:01:45.698Z,8.80
2023-05-22T20:04:13.097Z,8.85
2023-05-22T20:06:42.036Z,8.15
2023-05-22T20:09:09.973Z,8.80
2023-05-22T20:11:37.511Z,8.98
2023-05-22T20:14:05.154Z,8.50
2023-05-22T20:16:32.434Z,8.43
2023-05-22T20:18:59.894Z,9.25
2023-05-22T20:21:28.430Z,8.52
2023-05-22T20:23:56.998Z,8.02
2023-05-22T20:26:24.599Z,8.38
2023-05-22T20:28:52.064Z,9.10
2023-05-22T20:31:19.507Z,9.23
2023-05-22T20:33:48.143Z,8.80
2023-05-22T20:36:16.754Z,8.65
2023-05-22T20:38:44.444Z,8.88
2023-05-22T20:41:13.188Z,7.50
2023-05-22T20:43:43.594Z,8.63
2023-05-22T20:46:11.313Z,8.77
2023-05-22T20:48:38.801Z,8.80
2023-05-22T20:51:06.793Z,8.68
2023-05-22T20:53:34.217Z,8.13
2023-05-22T20:56:02.019Z,8.70
2023-05-22T20:58:29.552Z,8.80
2023-05-22T21:00:57.599Z,9.27
2023-05-22T21:03:26.190Z,9.07
2023-05-22T21:05:55.520Z,10.00
2023-05-22T21:08:23.170Z,8.63
2023-05-22T21:10:50.970Z,8.75
2023-05-22T21:13:19.504Z,9.32
2023-05-22T21:15:46.857Z,9.15
2023-05-22T21:18:14.631Z,9.73
2023-05-22T21:20:44.884Z,9.93
2023-05-22T21:23:12.656Z,10.95
2023-05-22T21:25:40.471Z,10.15
2023-05-22T21:28:07.918Z,10.18
2023-05-22T21:30:36.035Z,11.18
2023-05-22T21:33:06.499Z,11.48
2023-05-22T21:35:33.961Z,10.80
2023-05-22T21:38:01.386Z,10.82
2023-05-22T21:40:28.658Z,11.57
2023-05-22T21:42:56.495Z,12.43
2023-05-22T21:45:23.772Z,11.98
2023-05-22T21:47:51.193Z,11.13
2023-05-22T21:50:19.218Z,11.75
2023-05-22T21:52:46.786Z,10.55
2023-05-22T21:55:15.221Z,10.98
2023-05-22T21:57:42.551Z,11.60
2023-05-22T22:00:11.832Z,11.05
2023-05-22T22:02:39.902Z,10.57
2023-05-22T22:05:07.855Z,11.13
2023-05-22T22:07:35.775Z,11.10
2023-05-22T22:10:06.890Z,10.65
2023-05-22T22:12:34.910Z,11.23
2023-05-22T22:15:02.618Z,11.25
2023-05-22T22:17:30.109Z,10.13
2023-05-22T22:19:57.464Z,10.70
2023-05-22T22:22:25.140Z,11.00
2023-05-22T22:24:52.564Z,11.18
2023-05-22T22:27:19.831Z,10.70
2023-05-22T22:29:47.409Z,10.95
2023-05-22T22:35:00.012Z,10.87
2023-05-22T22:37:27.331Z,10.38
2023-05-22T22:39:54.643Z,10.13
2023-05-22T22:42:21.964Z,10.13
2023-05-22T22:44:49.211Z,10.68
2023-05-22T22:47:16.477Z,10.15
2023-05-22T22:49:43.787Z,11.65
2023-05-22T22:52:11.062Z,11.70
2023-05-22T22:54:38.536Z,11.95
2023-05-22T22:57:06.531Z,11.70
2023-05-22T22:59:35.422Z,11.38
2023-05-22T23:02:02.733Z,11.80
2023-05-22T23:04:31.276Z,11.48
2023-05-22T23:06:59.147Z,11.68
2023-05-22T23:09:26.608Z,11.93
2023-05-22T23:11:54.056Z,11.85
2023-05-22T23:14:21.444Z,11.35
2023-05-22T23:16:48.773Z,11.73
2023-05-22T23:19:16.156Z,12.13
2023-05-22T23:21:43.642Z,12.43
2023-05-22T23:24:11.029Z,12.20
2023-05-22T23:26:38.315Z,12.15
2023-05-22T23:29:06.491Z,12.32
2023-05-22T23:31:33.828Z,12.38
2023-05-22T23:34:01.097Z,13.13
2023-05-22T23:36:28.929Z,12.43
2023-05-22T23:38:56.297Z,11.98
2023-05-22T23:41:24.850Z,12.02
2023-05-22T23:43:52.163Z,12.63
2023-05-22T23:46:21.049Z,13.05
2023-05-22T23:48:48.568Z,13.38
2023-05-22T23:51:16.814Z,12.55
2023-05-22T23:53:44.205Z,12.60
2023-05-22T23:56:11.527Z,12.90
2023-05-22T23:58:38.921Z,12.77
